sensor_id;sensor_type;location;lat;lon;timestamp;pressure;altitude;pressure_sealevel;temperature;humidity
58879;BME280;44660;42.664;23.266;2023-05-02T22:03:11;94758.53;;;13.24;43.05
58879;BME280;44660;42.664;23.266;2023-05-02T22:05:37;94792.88;;;13.37;43.06
58879;BME280;44660;42.664;23.266;2023-05-02T22:08:04;94793.44;;;13.39;43.17
58879;BME280;44660;42.664;23.266;2023-05-02T22:10:31;94749.25;;;12.99;43.04
58879;BME280;44660;42.664;23.266;2023-05-02T22:12:57;94770.56;;;13.27;43.22
58879;BME280;44660;42.664;23.266;2023-05-02T22:15:22;94743.91;;;12.99;43.47
58879;BME280;44660;42.664;23.266;2023-05-02T22:17:48;94768.84;;;13.15;43.62
58879;BME280;44660;42.664;23.266;2023-05-02T22:20:14;94799.81;;;13.38;43.35
58879;BME280;44660;42.664;23.266;2023-05-02T22:22:40;94734.94;;;13.11;43.41
58879;BME280;44660;42.664;23.266;2023-05-02T22:25:06;94748.03;;;13.12;43.39
58879;BME280;44660;42.664;23.266;2023-05-02T22:27:31;94750.94;;;13.11;43.19
58879;BME280;44660;42.664;23.266;2023-05-02T22:29:57;94799.69;;;13.28;43.48
58879;BME280;44660;42.664;23.266;2023-05-02T22:32:22;94771.75;;;13.09;43.72
58879;BME280;44660;42.664;23.266;2023-05-02T22:34:48;94777.94;;;13.14;43.44
58879;BME280;44660;42.664;23.266;2023-05-02T22:37:13;94743.28;;;12.92;43.68
58879;BME280;44660;42.664;23.266;2023-05-02T22:39:39;94789.94;;;13.12;43.38
58879;BME280;44660;42.664;23.266;2023-05-02T22:42:05;94770.59;;;12.99;43.63
58879;BME280;44660;42.664;23.266;2023-05-02T22:44:30;94783.47;;;13.07;43.35
58879;BME280;44660;42.664;23.266;2023-05-02T22:46:56;94789.13;;;13.11;43.57
58879;BME280;44660;42.664;23.266;2023-05-02T22:49:22;94812.41;;;13.16;43.47
58879;BME280;44660;42.664;23.266;2023-05-02T22:51:48;94779.03;;;12.91;43.48
58879;BME280;44660;42.664;23.266;2023-05-02T22:54:13;94806.66;;;13.02;43.75
58879;BME280;44660;42.664;23.266;2023-05-02T22:56:39;94744.31;;;12.86;43.79
58879;BME280;44660;42.664;23.266;2023-05-02T22:59:05;94776.47;;;13.01;43.52
58879;BME280;44660;42.664;23.266;2023-05-02T23:01:31;94774.69;;;12.85;43.49
58879;BME280;44660;42.664;23.266;2023-05-02T23:03:57;94752.16;;;12.70;43.44
58879;BME280;44660;42.664;23.266;2023-05-02T23:06:23;94761.81;;;12.77;43.71
58879;BME280;44660;42.664;23.266;2023-05-02T23:08:48;94775.16;;;12.77;43.67
58879;BME280;44660;42.664;23.266;2023-05-02T23:11:14;94754.34;;;12.73;43.62
58879;BME280;44660;42.664;23.266;2023-05-02T23:13:40;94767.47;;;12.80;43.35
58879;BME280;44660;42.664;23.266;2023-05-02T23:16:05;94765.53;;;12.76;43.49
58879;BME280;44660;42.664;23.266;2023-05-02T23:18:31;94763.44;;;12.78;43.62
58879;BME280;44660;42.664;23.266;2023-05-02T23:20:57;94702.34;;;12.27;43.66
58879;BME280;44660;42.664;23.266;2023-05-02T23:23:22;94755.28;;;12.62;43.21
58879;BME280;44660;42.664;23.266;2023-05-02T23:25:48;94774.22;;;12.66;43.17
58879;BME280;44660;42.664;23.266;2023-05-02T23:28:13;94778.25;;;12.68;43.32
58879;BME280;44660;42.664;23.266;2023-05-02T23:30:39;94737.91;;;12.37;43.47
58879;BME280;44660;42.664;23.266;2023-05-02T23:33:05;94772.75;;;12.53;43.23
58879;BME280;44660;42.664;23.266;2023-05-02T23:35:31;94740.22;;;12.29;43.05
58879;BME280;44660;42.664;23.266;2023-05-02T23:37:58;94782.63;;;12.52;43.05
58879;BME280;44660;42.664;23.266;2023-05-02T23:40:26;94756.53;;;12.32;43.21
58879;BME280;44660;42.664;23.266;2023-05-02T23:42:52;94774.94;;;12.34;43.10
58879;BME280;44660;42.664;23.266;2023-05-02T23:45:18;94743.38;;;12.25;43.15
58879;BME280;44660;42.664;23.266;2023-05-02T23:47:44;94762.38;;;12.29;42.94
58879;BME280;44660;42.664;23.266;2023-05-02T23:50:09;94734.97;;;12.12;42.57
58879;BME280;44660;42.664;23.266;2023-05-02T23:52:35;94751.13;;;12.05;42.63
58879;BME280;44660;42.664;23.266;2023-05-02T23:55:01;94734.16;;;11.94;42.96
58879;BME280;44660;42.664;23.266;2023-05-02T23:57:29;94779.22;;;12.13;43.09
58879;BME280;44660;42.664;23.266;2023-05-02T23:59:55;94782.53;;;12.03;42.86
